sensor_id;sensor_type;location;lat;lon;timestamp;pressure;altitude;pressure_sealevel;temperature;humidity
38812;BME280;24553;51.640;-0.752;2022-09-03T00:01:32;100252.94;;;15.13;100.00
38812;BME280;24553;51.640;-0.752;2022-09-03T00:04:09;100249.09;;;15.09;100.00
38812;BME280;24553;51.640;-0.752;2022-09-03T00:06:44;100250.34;;;15.06;100.00
38812;BME280;24553;51.640;-0.752;2022-09-03T00:09:20;100245.47;;;15.03;100.00
38812;BME280;24553;51.640;-0.752;2022-09-03T00:14:26;100243.53;;;14.92;100.00
38812;BME280;24553;51.640;-0.752;2022-09-03T00:17:03;100242.84;;;14.85;100.00
38812;BME280;24553;51.640;-0.752;2022-09-03T00:19:32;100243.72;;;14.78;100.00
38812;BME280;24553;51.640;-0.752;2022-09-03T00:22:10;100235.81;;;14.72;100.00
38812;BME280;24553;51.640;-0.752;2022-09-03T00:24:39;100237.50;;;14.66;100.00
38812;BME280;24553;51.640;-0.752;2022-09-03T00:27:12;100238.75;;;14.64;100.00
38812;BME280;24553;51.640;-0.752;2022-09-03T00:29:47;100225.88;;;14.60;100.00
38812;BME280;24553;51.640;-0.752;2022-09-03T00:32:18;100230.84;;;14.57;100.00
38812;BME280;24553;51.640;-0.752;2022-09-03T00:34:49;100237.06;;;14.51;100.00
38812;BME280;24553;51.640;-0.752;2022-09-03T00:37:15;100232.22;;;14.41;100.00
38812;BME280;24553;51.640;-0.752;2022-09-03T00:39:41;100229.41;;;14.36;100.00
38812;BME280;24553;51.640;-0.752;2022-09-03T00:48:26;100243.09;;;14.21;100.00
38812;BME280;24553;51.640;-0.752;2022-09-03T01:07:19;100248.47;;;14.76;100.00
38812;BME280;24553;51.640;-0.752;2022-09-03T01:10:15;100250.47;;;14.81;100.00
38812;BME280;24553;51.640;-0.752;2022-09-03T01:20:44;100236.31;;;14.80;100.00
38812;BME280;24553;51.640;-0.752;2022-09-03T01:26:29;100233.56;;;14.69;100.00
38812;BME280;24553;51.640;-0.752;2022-09-03T01:29:38;100237.34;;;14.61;100.00
38812;BME280;24553;51.640;-0.752;2022-09-03T01:32:19;100231.28;;;14.54;100.00
38812;BME280;24553;51.640;-0.752;2022-09-03T01:34:55;100233.19;;;14.47;100.00
38812;BME280;24553;51.640;-0.752;2022-09-03T01:48:20;100219.38;;;14.13;100.00
38812;BME280;24553;51.640;-0.752;2022-09-03T01:59:23;100223.91;;;14.12;100.00
38812;BME280;24553;51.640;-0.752;2022-09-03T02:02:02;100221.16;;;14.19;100.00
38812;BME280;24553;51.640;-0.752;2022-09-03T02:04:30;100223.38;;;14.22;100.00
38812;BME280;24553;51.640;-0.752;2022-09-03T02:06:58;100221.00;;;14.14;100.00
38812;BME280;24553;51.640;-0.752;2022-09-03T02:09:24;100221.16;;;14.01;100.00
38812;BME280;24553;51.640;-0.752;2022-09-03T02:12:13;100220.06;;;13.83;100.00
38812;BME280;24553;51.640;-0.752;2022-09-03T02:14:39;100212.44;;;13.68;100.00
38812;BME280;24553;51.640;-0.752;2022-09-03T02:17:06;100218.00;;;13.60;100.00
38812;BME280;24553;51.640;-0.752;2022-09-03T02:19:33;100218.69;;;13.56;100.00
38812;BME280;24553;51.640;-0.752;2022-09-03T02:21:59;100213.75;;;13.52;100.00
38812;BME280;24553;51.640;-0.752;2022-09-03T02:24:25;100223.22;;;13.48;100.00
38812;BME280;24553;51.640;-0.752;2022-09-03T02:26:52;100223.50;;;13.40;100.00
38812;BME280;24553;51.640;-0.752;2022-09-03T02:29:18;100218.22;;;13.34;100.00
38812;BME280;24553;51.640;-0.752;2022-09-03T02:31:44;100221.09;;;13.32;100.00
38812;BME280;24553;51.640;-0.752;2022-09-03T02:34:09;100219.06;;;13.27;100.00
38812;BME280;24553;51.640;-0.752;2022-09-03T02:36:39;100220.28;;;13.25;100.00
38812;BME280;24553;51.640;-0.752;2022-09-03T02:39:05;100225.81;;;13.23;100.00
38812;BME280;24553;51.640;-0.752;2022-09-03T02:41:32;100226.25;;;13.20;100.00
38812;BME280;24553;51.640;-0.752;2022-09-03T02:44:12;100218.69;;;13.17;100.00
38812;BME280;24553;51.640;-0.752;2022-09-03T02:46:49;100217.06;;;13.16;100.00
38812;BME280;24553;51.640;-0.752;2022-09-03T02:49:15;100214.00;;;13.13;100.00
38812;BME280;24553;51.640;-0.752;2022-09-03T02:51:42;100213.63;;;13.09;100.00
38812;BME280;24553;51.640;-0.752;2022-09-03T02:54:10;100212.78;;;13.08;100.00
38812;BME280;24553;51.640;-0.752;2022-09-03T02:56:36;100208.06;;;13.10;100.00
38812;BME280;24553;51.640;-0.752;2022-09-03T02:59:03;100203.78;;;13.09;100.00
38812;BME280;24553;51.640;-0.752;2022-09-03T03:01:29;100210.75;;;13.10;100.00
38812;BME280;24553;51.640;-0.752;2022-09-03T03:03:54;100200.91;;;13.11;100.00
38812;BME280;24553;51.640;-0.752;2022-09-03T03:06:20;100200.31;;;13.09;100.00
38812;BME280;24553;51.640;-0.752;2022-09-03T03:08:46;100194.59;;;13.05;100.00
38812;BME280;24553;51.640;-0.752;2022-09-03T03:11:12;100197.50;;;13.04;100.00
38812;BME280;24553;51.640;-0.752;2022-09-03T03:13:43;100197.25;;;13.05;100.00
38812;BME280;24553;51.640;-0.752;2022-09-03T03:16:10;100199.09;;;13.05;100.00
38812;BME280;24553;51.640;-0.752;2022-09-03T03:18:35;100193.41;;;13.01;100.00
38812;BME280;24553;51.640;-0.752;2022-09-03T03:21:12;100193.41;;;13.01;100.00
38812;BME280;24553;51.640;-0.752;2022-09-03T03:23:38;100190.13;;;12.99;100.00
38812;BME280;24553;51.640;-0.752;2022-09-03T03:26:12;100186.25;;;12.95;100.00
38812;BME280;24553;51.640;-0.752;2022-09-03T03:28:38;100189.97;;;12.94;100.00
38812;BME280;24553;51.640;-0.752;2022-09-03T03:31:14;100191.81;;;12.94;100.00
38812;BME280;24553;51.640;-0.752;2022-09-03T03:33:40;100194.25;;;12.95;100.00
38812;BME280;24553;51.640;-0.752;2022-09-03T03:36:13;100191.38;;;12.97;100.00
38812;BME280;24553;51.640;-0.752;2022-09-03T03:38:40;100182.97;;;13.00;100.00
38812;BME280;24553;51.640;-0.752;2022-09-03T03:41:17;100193.41;;;13.01;100.00
38812;BME280;24553;51.640;-0.752;2022-09-03T03:43:43;100194.81;;;13.04;100.00
38812;BME280;24553;51.640;-0.752;2022-09-03T03:46:09;100196.00;;;13.08;100.00
38812;BME280;24553;51.640;-0.752;2022-09-03T03:48:36;100189.69;;;13.09;100.00
38812;BME280;24553;51.640;-0.752;2022-09-03T03:51:04;100195.00;;;13.09;100.00
38812;BME280;24553;51.640;-0.752;2022-09-03T03:53:31;100202.16;;;13.08;100.00
38812;BME280;24553;51.640;-0.752;2022-09-03T03:55:58;100202.75;;;13.10;100.00
38812;BME280;24553;51.640;-0.752;2022-09-03T03:58:24;100210.97;;;13.09;100.00
38812;BME280;24553;51.640;-0.752;2022-09-03T04:00:51;100207.69;;;13.07;100.00
38812;BME280;24553;51.640;-0.752;2022-09-03T04:03:17;100208.13;;;13.04;100.00
38812;BME280;24553;51.640;-0.752;2022-09-03T04:05:54;100214.03;;;13.06;100.00
38812;BME280;24553;51.640;-0.752;2022-09-03T04:08:20;100202.22;;;13.02;100.00
38812;BME280;24553;51.640;-0.752;2022-09-03T04:10:46;100211.19;;;13.01;100.00
38812;BME280;24553;51.640;-0.752;2022-09-03T04:13:11;100212.41;;;13.05;100.00
38812;BME280;24553;51.640;-0.752;2022-09-03T04:15:37;100214.03;;;13.06;100.00
38812;BME280;24553;51.640;-0.752;2022-09-03T04:18:02;100216.94;;;13.04;100.00
38812;BME280;24553;51.640;-0.752;2022-09-03T04:20:28;100215.72;;;13.00;100.00
38812;BME280;24553;51.640;-0.752;2022-09-03T04:22:53;100217.56;;;13.00;100.00
38812;BME280;24553;51.640;-0.752;2022-09-03T04:25:19;100209.19;;;12.96;100.00
38812;BME280;24553;51.640;-0.752;2022-09-03T04:27:44;100210.81;;;12.97;100.00
38812;BME280;24553;51.640;-0.752;2022-09-03T04:30:10;100207.16;;;12.92;100.00
38812;BME280;24553;51.640;-0.752;2022-09-03T04:32:35;100203.91;;;12.90;100.00
38812;BME280;24553;51.640;-0.752;2022-09-03T04:35:21;100205.13;;;12.94;100.00
38812;BME280;24553;51.640;-0.752;2022-09-03T04:37:47;100206.31;;;12.98;100.00
38812;BME280;24553;51.640;-0.752;2022-09-03T04:40:12;100215.34;;;12.90;100.00
38812;BME280;24553;51.640;-0.752;2022-09-03T04:42:38;100212.31;;;12.86;100.00
38812;BME280;24553;51.640;-0.752;2022-09-03T04:45:04;100208.44;;;12.82;100.00
38812;BME280;24553;51.640;-0.752;2022-09-03T04:47:30;100202.34;;;12.75;100.00
38812;BME280;24553;51.640;-0.752;2022-09-03T04:49:56;100201.75;;;12.73;100.00
38812;BME280;24553;51.640;-0.752;2022-09-03T04:52:21;100202.34;;;12.75;100.00
38812;BME280;24553;51.640;-0.752;2022-09-03T04:54:46;100206.84;;;12.75;100.00
38812;BME280;24553;51.640;-0.752;2022-09-03T04:57:12;100196.59;;;12.78;100.00
38812;BME280;24553;51.640;-0.752;2022-09-03T04:59:38;100192.09;;;12.79;100.00
38812;BME280;24553;51.640;-0.752;2022-09-03T05:02:05;100190.28;;;12.73;100.00
38812;BME280;24553;51.640;-0.752;2022-09-03T05:04:30;100196.47;;;12.60;100.00
38812;BME280;24553;51.640;-0.752;2022-09-03T05:06:55;100189.78;;;12.44;100.00
38812;BME280;24553;51.640;-0.752;2022-09-03T05:09:21;100192.03;;;12.40;100.00
38812;BME280;24553;51.640;-0.752;2022-09-03T05:11:46;100189.00;;;12.37;100.00
38812;BME280;24553;51.640;-0.752;2022-09-03T05:14:11;100199.84;;;12.35;100.00
38812;BME280;24553;51.640;-0.752;2022-09-03T05:16:37;100206.59;;;12.31;100.00
38812;BME280;24553;51.640;-0.752;2022-09-03T05:19:03;100203.34;;;12.29;100.00
38812;BME280;24553;51.640;-0.752;2022-09-03T05:21:30;100200.06;;;12.20;100.00
38812;BME280;24553;51.640;-0.752;2022-09-03T05:23:56;100205.41;;;12.14;100.00
38812;BME280;24553;51.640;-0.752;2022-09-03T05:26:24;100201.53;;;12.10;100.00
38812;BME280;24553;51.640;-0.752;2022-09-03T05:28:55;100196.84;;;12.05;100.00
38812;BME280;24553;51.640;-0.752;2022-09-03T05:31:22;100199.91;;;12.02;100.00
38812;BME280;24553;51.640;-0.752;2022-09-03T05:33:51;100201.38;;;11.98;100.00
38812;BME280;24553;51.640;-0.752;2022-09-03T05:36:22;100192.56;;;11.97;100.00
38812;BME280;24553;51.640;-0.752;2022-09-03T05:38:49;100195.41;;;12.03;100.00
38812;BME280;24553;51.640;-0.752;2022-09-03T05:41:16;100201.94;;;12.00;100.00
38812;BME280;24553;51.640;-0.752;2022-09-03T05:43:42;100202.38;;;11.97;100.00
38812;BME280;24553;51.640;-0.752;2022-09-03T05:46:10;100198.91;;;11.96;100.00
38812;BME280;24553;51.640;-0.752;2022-09-03T05:48:38;100198.50;;;11.93;100.00
38812;BME280;24553;51.640;-0.752;2022-09-03T05:51:11;100197.66;;;11.92;100.00
38812;BME280;24553;51.640;-0.752;2022-09-03T05:53:38;100196.03;;;11.91;100.00
38812;BME280;24553;51.640;-0.752;2022-09-03T05:56:07;100199.75;;;11.90;100.00
38812;BME280;24553;51.640;-0.752;2022-09-03T05:58:38;100199.94;;;11.95;100.00
38812;BME280;24553;51.640;-0.752;2022-09-03T06:01:18;100199.28;;;12.07;100.00
38812;BME280;24553;51.640;-0.752;2022-09-03T06:03:47;100209.06;;;12.19;100.00
38812;BME280;24553;51.640;-0.752;2022-09-03T06:06:13;100210.69;;;12.27;100.00
38812;BME280;24553;51.640;-0.752;2022-09-03T06:08:40;100216.41;;;12.37;100.00
38812;BME280;24553;51.640;-0.752;2022-09-03T06:11:06;100211.03;;;12.44;100.00
38812;BME280;24553;51.640;-0.752;2022-09-03T06:13:33;100221.84;;;12.56;100.00
38812;BME280;24553;51.640;-0.752;2022-09-03T06:16:01;100212.22;;;12.61;100.00
38812;BME280;24553;51.640;-0.752;2022-09-03T06:18:27;100216.53;;;12.62;100.00
38812;BME280;24553;51.640;-0.752;2022-09-03T06:20:54;100217.34;;;12.63;100.00
38812;BME280;24553;51.640;-0.752;2022-09-03T06:23:20;100213.03;;;12.62;100.00
38812;BME280;24553;51.640;-0.752;2022-09-03T06:25:45;100218.75;;;12.65;100.00
38812;BME280;24553;51.640;-0.752;2022-09-03T06:28:11;100224.44;;;12.76;100.00
38812;BME280;24553;51.640;-0.752;2022-09-03T06:30:36;100223.97;;;12.85;100.00
38812;BME280;24553;51.640;-0.752;2022-09-03T06:33:01;100222.91;;;12.93;100.00
38812;BME280;24553;51.640;-0.752;2022-09-03T06:35:27;100227.59;;;12.98;100.00
38812;BME280;24553;51.640;-0.752;2022-09-03T06:37:52;100229.44;;;13.04;100.00
38812;BME280;24553;51.640;-0.752;2022-09-03T06:40:18;100235.75;;;13.09;100.00
38812;BME280;24553;51.640;-0.752;2022-09-03T06:42:55;100232.22;;;13.16;100.00
38812;BME280;24553;51.640;-0.752;2022-09-03T06:45:24;100232.63;;;13.19;100.00
38812;BME280;24553;51.640;-0.752;2022-09-03T06:47:49;100230.34;;;13.23;100.00
38812;BME280;24553;51.640;-0.752;2022-09-03T06:50:14;100234.63;;;13.30;100.00
38812;BME280;24553;51.640;-0.752;2022-09-03T06:52:42;100240.28;;;13.41;100.00
38812;BME280;24553;51.640;-0.752;2022-09-03T06:55:08;100236.72;;;13.53;100.00
38812;BME280;24553;51.640;-0.752;2022-09-03T06:57:33;100235.63;;;13.61;100.00
38812;BME280;24553;51.640;-0.752;2022-09-03T06:59:58;100236.97;;;13.70;100.00
38812;BME280;24553;51.640;-0.752;2022-09-03T07:02:24;100245.31;;;13.81;100.00
38812;BME280;24553;51.640;-0.752;2022-09-03T07:04:49;100250.31;;;13.95;100.00
38812;BME280;24553;51.640;-0.752;2022-09-03T07:07:14;100250.63;;;14.06;100.00
38812;BME280;24553;51.640;-0.752;2022-09-03T07:09:40;100246.41;;;14.16;100.00
38812;BME280;24553;51.640;-0.752;2022-09-03T07:12:06;100248.13;;;14.29;100.00
38812;BME280;24553;51.640;-0.752;2022-09-03T07:14:31;100252.53;;;14.42;100.00
38812;BME280;24553;51.640;-0.752;2022-09-03T07:16:57;100257.56;;;14.50;100.00
38812;BME280;24553;51.640;-0.752;2022-09-03T07:19:22;100261.16;;;14.63;100.00
38812;BME280;24553;51.640;-0.752;2022-09-03T07:21:48;100267.38;;;14.75;100.00
38812;BME280;24553;51.640;-0.752;2022-09-03T07:24:13;100259.41;;;14.87;100.00
38812;BME280;24553;51.640;-0.752;2022-09-03T07:26:40;100261.56;;;14.96;100.00
38812;BME280;24553;51.640;-0.752;2022-09-03T07:29:09;100271.63;;;15.13;100.00
38812;BME280;24553;51.640;-0.752;2022-09-03T07:31:37;100272.25;;;15.26;100.00
38812;BME280;24553;51.640;-0.752;2022-09-03T07:34:05;100265.91;;;15.39;100.00
38812;BME280;24553;51.640;-0.752;2022-09-03T07:36:36;100278.28;;;15.52;100.00
38812;BME280;24553;51.640;-0.752;2022-09-03T07:39:03;100272.72;;;15.65;100.00
38812;BME280;24553;51.640;-0.752;2022-09-03T07:41:29;100281.59;;;15.78;100.00
38812;BME280;24553;51.640;-0.752;2022-09-03T07:43:57;100278.03;;;15.96;100.00
38812;BME280;24553;51.640;-0.752;2022-09-03T07:46:25;100280.81;;;16.12;100.00
38812;BME280;24553;51.640;-0.752;2022-09-03T07:48:56;100277.34;;;16.24;100.00
38812;BME280;24553;51.640;-0.752;2022-09-03T07:51:26;100279.63;;;16.44;100.00
38812;BME280;24553;51.640;-0.752;2022-09-03T07:53:54;100281.94;;;16.52;100.00
38812;BME280;24553;51.640;-0.752;2022-09-03T07:56:21;100281.84;;;16.58;100.00
38812;BME280;24553;51.640;-0.752;2022-09-03T07:58:47;100289.38;;;16.73;100.00
38812;BME280;24553;51.640;-0.752;2022-09-03T08:01:17;100289.03;;;16.82;100.00
38812;BME280;24553;51.640;-0.752;2022-09-03T08:03:45;100288.91;;;16.88;100.00
38812;BME280;24553;51.640;-0.752;2022-09-03T08:06:11;100295.31;;;16.87;100.00
38812;BME280;24553;51.640;-0.752;2022-09-03T08:08:38;100294.63;;;16.80;100.00
38812;BME280;24553;51.640;-0.752;2022-09-03T08:13:40;100295.75;;;16.72;100.00
38812;BME280;24553;51.640;-0.752;2022-09-03T08:16:07;100298.56;;;16.77;100.00
38812;BME280;24553;51.640;-0.752;2022-09-03T08:18:33;100293.09;;;16.84;100.00
38812;BME280;24553;51.640;-0.752;2022-09-03T08:21:13;100298.50;;;17.01;100.00
38812;BME280;24553;51.640;-0.752;2022-09-03T08:23:41;100290.56;;;17.06;100.00
38812;BME280;24553;51.640;-0.752;2022-09-03T08:26:07;100295.72;;;16.96;100.00
38812;BME280;24553;51.640;-0.752;2022-09-03T08:28:33;100297.06;;;16.82;100.00
38812;BME280;24553;51.640;-0.752;2022-09-03T08:33:31;100286.13;;;16.60;100.00
38812;BME280;24553;51.640;-0.752;2022-09-03T08:36:10;100281.34;;;16.73;100.00
38812;BME280;24553;51.640;-0.752;2022-09-03T08:38:40;100287.59;;;16.91;100.00
38812;BME280;24553;51.640;-0.752;2022-09-03T08:41:11;100271.94;;;17.11;100.00
38812;BME280;24553;51.640;-0.752;2022-09-03T08:44:10;100273.75;;;17.22;100.00
38812;BME280;24553;51.640;-0.752;2022-09-03T08:49:32;100253.94;;;17.23;100.00
38812;BME280;24553;51.640;-0.752;2022-09-03T08:52:03;100256.31;;;17.37;100.00
38812;BME280;24553;51.640;-0.752;2022-09-03T08:54:31;100244.38;;;17.44;100.00
38812;BME280;24553;51.640;-0.752;2022-09-03T08:57:00;100246.75;;;17.58;100.00
38812;BME280;24553;51.640;-0.752;2022-09-03T08:59:29;100238.00;;;17.62;100.00
38812;BME280;24553;51.640;-0.752;2022-09-03T09:02:02;100236.94;;;17.63;100.00
38812;BME280;24553;51.640;-0.752;2022-09-03T09:07:11;100238.34;;;17.83;100.00
38812;BME280;24553;51.640;-0.752;2022-09-03T09:09:50;100219.66;;;17.88;100.00
38812;BME280;24553;51.640;-0.752;2022-09-03T09:12:34;100215.25;;;17.99;100.00
38812;BME280;24553;51.640;-0.752;2022-09-03T09:15:12;100211.75;;;17.98;100.00
38812;BME280;24553;51.640;-0.752;2022-09-03T09:20:58;100213.28;;;18.11;100.00
38812;BME280;24553;51.640;-0.752;2022-09-03T09:23:35;100211.75;;;18.37;100.00
38812;BME280;24553;51.640;-0.752;2022-09-03T09:26:06;100209.31;;;18.58;100.00
38812;BME280;24553;51.640;-0.752;2022-09-03T09:28:35;100198.31;;;18.81;100.00
38812;BME280;24553;51.640;-0.752;2022-09-03T09:31:10;100181.56;;;18.74;100.00
38812;BME280;24553;51.640;-0.752;2022-09-03T09:33:39;100191.09;;;18.60;100.00
38812;BME280;24553;51.640;-0.752;2022-09-03T09:36:08;100199.94;;;18.60;100.00
38812;BME280;24553;51.640;-0.752;2022-09-03T09:38:35;100185.09;;;18.52;100.00
38812;BME280;24553;51.640;-0.752;2022-09-03T09:41:10;100191.59;;;18.57;100.00
38812;BME280;24553;51.640;-0.752;2022-09-03T09:43:36;100179.16;;;18.50;100.00
38812;BME280;24553;51.640;-0.752;2022-09-03T09:46:11;100184.84;;;18.54;100.00
38812;BME280;24553;51.640;-0.752;2022-09-03T09:48:43;100185.78;;;18.65;100.00
38812;BME280;24553;51.640;-0.752;2022-09-03T09:51:21;100178.59;;;18.92;100.00
38812;BME280;24553;51.640;-0.752;2022-09-03T09:53:47;100187.00;;;19.01;100.00
38812;BME280;24553;51.640;-0.752;2022-09-03T09:56:23;100172.81;;;19.06;100.00
38812;BME280;24553;51.640;-0.752;2022-09-03T09:58:49;100173.47;;;19.18;100.00
38812;BME280;24553;51.640;-0.752;2022-09-03T10:01:22;100174.00;;;19.20;100.00
38812;BME280;24553;51.640;-0.752;2022-09-03T10:03:52;100178.94;;;19.33;100.00
38812;BME280;24553;51.640;-0.752;2022-09-03T10:06:25;100172.75;;;19.33;100.00
38812;BME280;24553;51.640;-0.752;2022-09-03T10:09:12;100172.22;;;19.36;100.00
38812;BME280;24553;51.640;-0.752;2022-09-03T10:11:45;100170.78;;;19.55;100.00
38812;BME280;24553;51.640;-0.752;2022-09-03T10:14:23;100158.56;;;19.70;100.00
38812;BME280;24553;51.640;-0.752;2022-09-03T10:17:07;100164.47;;;19.72;100.00
38812;BME280;24553;51.640;-0.752;2022-09-03T10:20:00;100158.41;;;19.92;100.00
38812;BME280;24553;51.640;-0.752;2022-09-03T10:22:53;100158.66;;;19.90;100.00
38812;BME280;24553;51.640;-0.752;2022-09-03T10:25:19;100157.28;;;19.88;100.00
38812;BME280;24553;51.640;-0.752;2022-09-03T10:27:45;100152.81;;;19.98;100.00
38812;BME280;24553;51.640;-0.752;2022-09-03T10:30:12;100159.44;;;20.38;100.00
38812;BME280;24553;51.640;-0.752;2022-09-03T10:33:03;100153.63;;;20.77;100.00
38812;BME280;24553;51.640;-0.752;2022-09-03T10:35:37;100143.69;;;20.83;100.00
38812;BME280;24553;51.640;-0.752;2022-09-03T10:38:32;100138.28;;;20.78;100.00
38812;BME280;24553;51.640;-0.752;2022-09-03T10:41:19;100150.16;;;20.82;100.00
38812;BME280;24553;51.640;-0.752;2022-09-03T10:44:00;100152.88;;;20.92;100.00
38812;BME280;24553;51.640;-0.752;2022-09-03T10:49:57;100148.03;;;21.04;100.00
38812;BME280;24553;51.640;-0.752;2022-09-03T10:52:26;100144.50;;;21.19;100.00
38812;BME280;24553;51.640;-0.752;2022-09-03T10:55:17;100146.94;;;21.26;100.00
38812;BME280;24553;51.640;-0.752;2022-09-03T10:57:48;100151.53;;;21.30;100.00
38812;BME280;24553;51.640;-0.752;2022-09-03T11:00:16;100149.91;;;21.19;100.00
38812;BME280;24553;51.640;-0.752;2022-09-03T11:06:00;100152.84;;;20.82;100.00
38812;BME280;24553;51.640;-0.752;2022-09-03T11:09:11;100152.81;;;20.72;100.00
38812;BME280;24553;51.640;-0.752;2022-09-03T11:11:19;100155.25;;;20.68;100.00
38812;BME280;24553;51.640;-0.752;2022-09-03T11:13:50;100154.44;;;20.73;100.00
38812;BME280;24553;51.640;-0.752;2022-09-03T11:16:21;100169.03;;;20.87;100.00
38812;BME280;24553;51.640;-0.752;2022-09-03T11:18:54;100145.03;;;21.01;100.00
38812;BME280;24553;51.640;-0.752;2022-09-03T11:21:25;100155.56;;;21.07;100.00
38812;BME280;24553;51.640;-0.752;2022-09-03T11:24:01;100145.84;;;21.11;100.00
38812;BME280;24553;51.640;-0.752;2022-09-03T11:26:29;100146.69;;;21.07;100.00
38812;BME280;24553;51.640;-0.752;2022-09-03T11:29:09;100152.06;;;21.07;100.00
38812;BME280;24553;51.640;-0.752;2022-09-03T11:34:11;100144.25;;;21.05;100.00
38812;BME280;24553;51.640;-0.752;2022-09-03T11:36:40;100141.56;;;21.31;100.00
38812;BME280;24553;51.640;-0.752;2022-09-03T11:39:33;100127.22;;;21.76;100.00
38812;BME280;24553;51.640;-0.752;2022-09-03T11:42:03;100123.56;;;22.27;100.00
38812;BME280;24553;51.640;-0.752;2022-09-03T11:47:13;100125.28;;;22.62;100.00
38812;BME280;24553;51.640;-0.752;2022-09-03T11:49:45;100121.81;;;22.52;100.00
38812;BME280;24553;51.640;-0.752;2022-09-03T11:52:11;100121.34;;;22.39;100.00
38812;BME280;24553;51.640;-0.752;2022-09-03T11:54:45;100123.25;;;22.39;100.00
38812;BME280;24553;51.640;-0.752;2022-09-03T11:57:15;100115.34;;;22.48;100.00
38812;BME280;24553;51.640;-0.752;2022-09-03T11:59:47;100120.13;;;22.61;100.00
38812;BME280;24553;51.640;-0.752;2022-09-03T12:04:44;100113.38;;;22.58;100.00
38812;BME280;24553;51.640;-0.752;2022-09-03T12:07:18;100108.72;;;22.25;100.00
38812;BME280;24553;51.640;-0.752;2022-09-03T12:10:02;100107.19;;;21.98;100.00
38812;BME280;24553;51.640;-0.752;2022-09-03T12:17:56;100118.97;;;22.17;100.00
38812;BME280;24553;51.640;-0.752;2022-09-03T12:20:42;100124.34;;;22.33;100.00
38812;BME280;24553;51.640;-0.752;2022-09-03T12:23:12;100122.72;;;22.37;100.00
38812;BME280;24553;51.640;-0.752;2022-09-03T12:25:42;100121.44;;;22.19;100.00
38812;BME280;24553;51.640;-0.752;2022-09-03T12:28:15;100130.28;;;22.30;100.00
38812;BME280;24553;51.640;-0.752;2022-09-03T12:30:43;100133.16;;;22.54;100.00
38812;BME280;24553;51.640;-0.752;2022-09-03T12:33:09;100130.13;;;22.60;100.00
38812;BME280;24553;51.640;-0.752;2022-09-03T12:35:38;100130.31;;;22.74;100.00
38812;BME280;24553;51.640;-0.752;2022-09-03T12:38:03;100134.47;;;22.61;100.00
38812;BME280;24553;51.640;-0.752;2022-09-03T12:40:29;100128.84;;;22.92;100.00
38812;BME280;24553;51.640;-0.752;2022-09-03T12:43:11;100124.56;;;23.25;100.00
38812;BME280;24553;51.640;-0.752;2022-09-03T12:45:48;100119.50;;;23.19;100.00
38812;BME280;24553;51.640;-0.752;2022-09-03T12:48:16;100132.38;;;22.93;100.00
38812;BME280;24553;51.640;-0.752;2022-09-03T12:50:43;100138.19;;;23.10;100.00
38812;BME280;24553;51.640;-0.752;2022-09-03T12:53:12;100128.53;;;23.33;100.00
38812;BME280;24553;51.640;-0.752;2022-09-03T12:55:42;100113.53;;;23.46;100.00
38812;BME280;24553;51.640;-0.752;2022-09-03T12:58:32;100122.66;;;23.55;100.00
38812;BME280;24553;51.640;-0.752;2022-09-03T13:01:04;100130.44;;;23.62;100.00
38812;BME280;24553;51.640;-0.752;2022-09-03T13:09:28;100129.78;;;23.46;100.00
38812;BME280;24553;51.640;-0.752;2022-09-03T13:11:58;100120.84;;;23.45;100.00
38812;BME280;24553;51.640;-0.752;2022-09-03T13:14:25;100122.88;;;23.59;100.00
38812;BME280;24553;51.640;-0.752;2022-09-03T13:17:03;100125.06;;;23.57;100.00
38812;BME280;24553;51.640;-0.752;2022-09-03T13:30:19;100117.75;;;23.28;100.00
38812;BME280;24553;51.640;-0.752;2022-09-03T13:36:15;100124.31;;;23.22;100.00
38812;BME280;24553;51.640;-0.752;2022-09-03T13:39:03;100135.69;;;22.79;100.00
38812;BME280;24553;51.640;-0.752;2022-09-03T13:41:41;100132.34;;;22.48;100.00
38812;BME280;24553;51.640;-0.752;2022-09-03T13:44:28;100130.03;;;22.31;100.00
38812;BME280;24553;51.640;-0.752;2022-09-03T13:47:07;100139.50;;;22.29;100.00
38812;BME280;24553;51.640;-0.752;2022-09-03T13:50:00;100129.50;;;22.29;100.00
38812;BME280;24553;51.640;-0.752;2022-09-03T13:53:07;100140.56;;;22.28;100.00
38812;BME280;24553;51.640;-0.752;2022-09-03T13:55:43;100139.56;;;22.63;100.00
38812;BME280;24553;51.640;-0.752;2022-09-03T13:58:36;100144.78;;;22.94;100.00
38812;BME280;24553;51.640;-0.752;2022-09-03T14:01:43;100127.47;;;22.95;100.00
38812;BME280;24553;51.640;-0.752;2022-09-03T14:04:19;100130.50;;;22.88;100.00
38812;BME280;24553;51.640;-0.752;2022-09-03T14:07:10;100128.91;;;22.82;100.00
38812;BME280;24553;51.640;-0.752;2022-09-03T14:12:12;100130.66;;;23.07;100.00
38812;BME280;24553;51.640;-0.752;2022-09-03T14:14:59;100124.94;;;23.43;100.00
38812;BME280;24553;51.640;-0.752;2022-09-03T14:17:40;100121.63;;;23.80;100.00
38812;BME280;24553;51.640;-0.752;2022-09-03T14:20:28;100107.84;;;23.77;100.00
38812;BME280;24553;51.640;-0.752;2022-09-03T14:23:02;100114.75;;;23.88;100.00
38812;BME280;24553;51.640;-0.752;2022-09-03T14:25:30;100124.97;;;23.96;100.00
38812;BME280;24553;51.640;-0.752;2022-09-03T14:37:04;100113.53;;;23.17;100.00
38812;BME280;24553;51.640;-0.752;2022-09-03T14:39:47;100108.44;;;23.10;100.00
38812;BME280;24553;51.640;-0.752;2022-09-03T14:42:30;100102.81;;;23.06;100.00
38812;BME280;24553;51.640;-0.752;2022-09-03T15:01:33;100127.91;;;22.23;100.00
38812;BME280;24553;51.640;-0.752;2022-09-03T15:12:20;100133.56;;;22.16;100.00
38812;BME280;24553;51.640;-0.752;2022-09-03T15:14:56;100135.50;;;22.11;100.00
38812;BME280;24553;51.640;-0.752;2022-09-03T15:25:21;100136.44;;;22.40;100.00